createdAt,value
2023-04-15T00:00:23.429Z,5.55
2023-04-15T00:03:26.142Z,2.35
2023-04-15T00:06:28.438Z,8.63
2023-04-15T00:09:30.713Z,5.28
2023-04-15T00:12:33.083Z,5.10
2023-04-15T00:15:35.011Z,6.67
2023-04-15T00:18:37.838Z,2.70
2023-04-15T00:21:39.818Z,2.90
2023-04-15T00:24:43.035Z,5.57
2023-04-15T00:27:44.973Z,4.72
2023-04-15T00:30:47.442Z,6.30
2023-04-15T00:33:49.545Z,3.70
2023-04-15T00:36:54.463Z,3.83
2023-04-15T00:39:56.543Z,5.68
2023-04-15T00:42:58.666Z,5.63
2023-04-15T00:46:02.403Z,3.67
2023-04-15T00:49:05.613Z,4.57
2023-04-15T00:52:09.083Z,4.60
2023-04-15T00:55:11.376Z,4.72
2023-04-15T00:58:13.409Z,5.20
2023-04-15T01:01:21.493Z,4.40
2023-04-15T01:04:24.205Z,5.97
2023-04-15T01:07:26.360Z,5.65
2023-04-15T01:10:29.060Z,5.20
2023-04-15T01:13:33.899Z,6.72
2023-04-15T01:16:39.963Z,6.70
2023-04-15T01:19:42.327Z,4.27
2023-04-15T01:22:45.218Z,4.03
2023-04-15T01:25:47.555Z,3.70
2023-04-15T01:28:50.679Z,4.18
2023-04-15T01:31:53.762Z,5.83
2023-04-15T01:34:55.773Z,3.08
2023-04-15T01:38:06.397Z,4.63
2023-04-15T01:41:08.685Z,4.65
2023-04-15T01:44:11.089Z,2.95
2023-04-15T01:47:15.311Z,2.58
2023-04-15T01:50:17.478Z,2.85
2023-04-15T01:53:19.895Z,3.30
2023-04-15T01:56:22.117Z,3.25
2023-04-15T01:59:24.176Z,4.55
2023-04-15T02:02:26.460Z,4.57
2023-04-15T02:05:31.344Z,3.38
2023-04-15T02:08:33.568Z,3.20
2023-04-15T02:11:37.249Z,3.67
2023-04-15T02:14:39.826Z,2.15
2023-04-15T02:17:45.848Z,5.07
2023-04-15T02:20:52.103Z,4.75
2023-04-15T02:23:54.225Z,5.33
2023-04-15T02:26:57.396Z,4.97
2023-04-15T02:29:59.445Z,4.50
2023-04-15T02:33:02.264Z,4.00
2023-04-15T02:36:04.700Z,4.50
2023-04-15T02:39:06.999Z,4.82
2023-04-15T02:42:09.629Z,3.17
2023-04-15T02:45:12.915Z,3.83
2023-04-15T02:48:18.114Z,4.22
2023-04-15T02:51:22.804Z,4.32
2023-04-15T02:54:25.256Z,4.13
2023-04-15T02:57:29.217Z,5.07
2023-04-15T03:00:33.635Z,6.85
2023-04-15T03:03:35.753Z,5.07
2023-04-15T03:06:46.306Z,5.00
2023-04-15T03:09:48.320Z,6.45
2023-04-15T03:12:51.128Z,3.67
2023-04-15T03:15:55.675Z,4.65
2023-04-15T03:18:58.989Z,4.83
2023-04-15T03:22:01.006Z,2.92
2023-04-15T03:25:03.864Z,4.65
2023-04-15T03:28:07.938Z,5.53
2023-04-15T03:31:10.088Z,4.20
2023-04-15T03:34:12.190Z,3.92
2023-04-15T03:37:14.215Z,5.53
2023-04-15T03:40:16.405Z,7.05
2023-04-15T03:43:18.393Z,6.15
2023-04-15T03:46:20.548Z,7.05
2023-04-15T03:49:23.321Z,6.93
2023-04-15T03:52:25.632Z,6.87
2023-04-15T03:55:27.508Z,4.88
2023-04-15T03:58:29.837Z,5.10
2023-04-15T04:01:32.279Z,8.25
2023-04-15T04:04:34.401Z,6.43
2023-04-15T04:07:36.600Z,5.95
2023-04-15T04:10:38.652Z,5.53
2023-04-15T04:13:41.054Z,8.70
2023-04-15T04:16:43.023Z,10.48
2023-04-15T04:19:44.966Z,5.43
2023-04-15T04:22:46.902Z,6.95
2023-04-15T04:25:48.823Z,5.10
2023-04-15T04:28:51.284Z,4.72
2023-04-15T04:31:53.265Z,7.57
2023-04-15T04:34:55.588Z,6.57
2023-04-15T04:38:01.246Z,7.00
2023-04-15T04:41:03.262Z,9.52
2023-04-15T04:44:05.484Z,9.70
2023-04-15T04:47:07.774Z,10.07
2023-04-15T04:50:10.388Z,5.37
2023-04-15T04:53:12.950Z,7.55
2023-04-15T04:56:14.885Z,9.27
2023-04-15T04:59:17.031Z,6.45
2023-04-15T05:02:20.716Z,3.43
2023-04-15T05:05:22.734Z,3.97
2023-04-15T05:08:24.920Z,6.80
2023-04-15T05:11:27.159Z,4.85
2023-04-15T05:14:29.169Z,5.87
2023-04-15T05:17:31.978Z,7.70
2023-04-15T05:20:34.337Z,4.07
2023-04-15T05:23:40.978Z,4.38
2023-04-15T05:26:42.998Z,5.77
2023-04-15T05:29:45.217Z,5.18
2023-04-15T05:32:47.283Z,4.97
2023-04-15T05:35:49.220Z,5.00
2023-04-15T05:38:51.715Z,7.00
2023-04-15T05:41:53.698Z,3.63
2023-04-15T05:44:55.682Z,4.28
2023-04-15T05:47:57.698Z,5.17
2023-04-15T05:51:00.135Z,4.70
2023-04-15T05:54:02.332Z,4.45
2023-04-15T05:57:04.348Z,7.80
2023-04-15T06:00:07.187Z,5.07
2023-04-15T06:03:11.984Z,4.53
2023-04-15T06:06:14.380Z,5.68
2023-04-15T06:09:16.976Z,4.72
2023-04-15T06:12:18.929Z,3.37
2023-04-15T06:15:21.008Z,12.30
2023-04-15T06:18:22.998Z,4.38
2023-04-15T06:21:25.080Z,3.10
2023-04-15T06:24:27.132Z,2.60
2023-04-15T06:27:29.152Z,4.65
2023-04-15T06:30:31.287Z,2.60
2023-04-15T06:33:33.347Z,3.13
2023-04-15T06:36:35.348Z,4.38
2023-04-15T06:39:37.741Z,4.13
2023-04-15T06:42:40.053Z,6.78
2023-04-15T06:45:42.074Z,2.03
2023-04-15T06:48:44.420Z,4.60
2023-04-15T06:51:46.364Z,3.55
2023-04-15T06:54:48.306Z,6.70
2023-04-15T06:57:50.315Z,2.95
2023-04-15T07:00:53.157Z,6.32
2023-04-15T07:03:55.459Z,3.53
2023-04-15T07:06:57.430Z,4.10
2023-04-15T07:09:59.986Z,2.50
2023-04-15T07:13:02.199Z,4.03
2023-04-15T07:16:04.571Z,2.60
2023-04-15T07:19:06.649Z,4.32
2023-04-15T07:22:09.200Z,2.70
2023-04-15T07:25:11.198Z,2.10
2023-04-15T07:28:13.275Z,1.88
2023-04-15T07:31:16.528Z,0.73
2023-04-15T07:34:19.749Z,1.70
2023-04-15T07:37:21.690Z,1.60
2023-04-15T07:40:23.945Z,1.42
2023-04-15T07:43:26.008Z,1.60
2023-04-15T07:46:28.523Z,1.60
2023-04-15T07:49:30.738Z,4.10
2023-04-15T07:52:38.545Z,3.80
2023-04-15T07:55:40.634Z,2.13
2023-04-15T07:58:43.651Z,1.80
2023-04-15T08:01:45.797Z,1.20
2023-04-15T08:04:48.789Z,1.92
2023-04-15T08:07:51.107Z,5.30
2023-04-15T08:10:53.605Z,1.85
2023-04-15T08:13:56.092Z,2.08
2023-04-15T08:16:58.122Z,2.17
2023-04-15T08:20:00.185Z,1.33
2023-04-15T08:23:02.257Z,2.17
2023-04-15T08:26:04.236Z,1.48
2023-04-15T08:29:06.159Z,1.25
2023-04-15T08:32:09.610Z,1.98
2023-04-15T08:35:12.434Z,1.60
2023-04-15T08:38:14.403Z,2.23
2023-04-15T08:41:24.113Z,2.05
2023-04-15T08:44:29.328Z,1.05
2023-04-15T08:47:32.171Z,1.48
2023-04-15T08:50:34.913Z,1.17
2023-04-15T08:53:37.660Z,0.93
2023-04-15T08:56:40.772Z,3.80
2023-04-15T08:59:43.970Z,2.05
2023-04-15T09:02:46.844Z,1.20
2023-04-15T09:05:50.455Z,1.67
2023-04-15T09:08:53.456Z,1.90
2023-04-15T09:11:55.971Z,1.98
2023-04-15T09:14:58.345Z,3.45
2023-04-15T09:18:00.586Z,0.95
2023-04-15T09:21:06.493Z,1.58
2023-04-15T09:24:08.600Z,2.63
2023-04-15T09:27:11.154Z,2.03
2023-04-15T09:30:13.202Z,2.10
2023-04-15T09:33:15.353Z,1.30
2023-04-15T09:36:17.629Z,1.52
2023-04-15T09:39:19.762Z,1.20
2023-04-15T09:42:26.930Z,3.03
2023-04-15T09:45:29.861Z,2.17
2023-04-15T09:48:32.161Z,2.35
2023-04-15T09:51:37.821Z,1.40
2023-04-15T09:54:39.837Z,2.87
2023-04-15T09:57:42.440Z,2.28
2023-04-15T10:00:45.043Z,1.83
2023-04-15T10:03:47.485Z,7.93
2023-04-15T10:06:49.755Z,2.08
2023-04-15T10:09:52.090Z,1.87
2023-04-15T10:12:54.944Z,1.65
2023-04-15T10:16:07.226Z,6.95
2023-04-15T10:19:09.608Z,2.13
2023-04-15T10:22:11.935Z,1.00
2023-04-15T10:25:15.743Z,0.77
2023-04-15T10:28:17.833Z,2.55
2023-04-15T10:31:20.712Z,1.50
2023-04-15T10:34:24.616Z,0.77
2023-04-15T10:37:38.017Z,0.63
2023-04-15T10:40:40.522Z,0.83
2023-04-15T10:44:02.765Z,1.05
2023-04-15T10:47:13.558Z,1.40
2023-04-15T10:50:15.735Z,0.88
2023-04-15T10:53:28.566Z,1.30
2023-04-15T10:56:31.270Z,0.97
2023-04-15T10:59:58.954Z,0.93
2023-04-15T11:03:09.811Z,1.35
2023-04-15T11:06:12.068Z,0.60
2023-04-15T11:09:43.452Z,1.50
2023-04-15T11:12:45.973Z,2.17
2023-04-15T11:15:49.517Z,0.52
2023-04-15T11:18:57.499Z,1.08
2023-04-15T11:22:07.484Z,0.52
2023-04-15T11:25:09.495Z,0.65
2023-04-15T11:28:12.760Z,0.40
2023-04-15T11:31:17.882Z,0.88
2023-04-15T11:34:24.112Z,0.88
2023-04-15T11:37:30.404Z,1.10
2023-04-15T11:40:35.510Z,0.68
2023-04-15T11:43:37.553Z,0.77
2023-04-15T11:46:39.474Z,0.32
2023-04-15T11:49:41.641Z,1.33
2023-04-15T11:53:06.883Z,0.80
2023-04-15T11:56:17.163Z,0.80
2023-04-15T11:59:19.156Z,0.60
2023-04-15T12:02:32.037Z,2.13
2023-04-15T12:05:34.115Z,4.07
2023-04-15T12:08:51.144Z,1.02
2023-04-15T12:12:03.788Z,1.67
2023-04-15T12:15:09.908Z,2.53
2023-04-15T12:18:19.842Z,0.90
2023-04-15T12:21:23.801Z,1.42
2023-04-15T12:24:26.278Z,1.13
2023-04-15T12:27:29.809Z,4.07
2023-04-15T12:30:32.223Z,1.77
2023-04-15T12:33:34.793Z,1.48
2023-04-15T12:36:37.261Z,1.98
2023-04-15T12:39:41.587Z,0.80
2023-04-15T12:42:43.648Z,1.05
2023-04-15T12:45:45.714Z,0.27
2023-04-15T12:48:47.949Z,0.93
2023-04-15T12:51:51.480Z,1.63
2023-04-15T12:54:53.633Z,0.68
2023-04-15T12:57:55.565Z,1.00
2023-04-15T13:00:57.506Z,1.43
2023-04-15T13:03:59.625Z,1.60
2023-04-15T13:07:02.482Z,0.80
2023-04-15T13:10:04.865Z,4.03
2023-04-15T13:13:06.869Z,1.83
2023-04-15T13:16:09.807Z,0.80
2023-04-15T13:19:11.943Z,2.53
2023-04-15T13:22:14.998Z,2.70
2023-04-15T13:25:17.359Z,1.65
2023-04-15T13:28:19.393Z,2.38
2023-04-15T13:31:21.501Z,2.17
2023-04-15T13:34:23.716Z,1.13
2023-04-15T13:37:29.567Z,1.42
2023-04-15T13:40:31.604Z,1.35
2023-04-15T13:43:34.381Z,1.85
2023-04-15T13:46:36.400Z,2.43
2023-04-15T13:49:38.670Z,2.92
2023-04-15T13:52:40.816Z,4.43
2023-04-15T13:55:43.166Z,2.05
2023-04-15T13:58:45.242Z,2.30
2023-04-15T14:01:47.364Z,1.67
2023-04-15T14:04:49.520Z,2.95
2023-04-15T14:07:51.616Z,4.28
2023-04-15T14:10:53.660Z,4.40
2023-04-15T14:13:56.020Z,2.15
2023-04-15T14:16:58.835Z,3.20
2023-04-15T14:20:01.092Z,8.38
2023-04-15T14:23:03.190Z,6.03
2023-04-15T14:26:05.481Z,2.40
2023-04-15T14:29:07.579Z,2.20
2023-04-15T14:32:12.233Z,3.33
2023-04-15T14:35:14.994Z,1.90
2023-04-15T14:38:17.058Z,3.90
2023-04-15T14:41:19.057Z,4.88
2023-04-15T14:44:21.216Z,4.30
2023-04-15T14:47:23.520Z,6.80
2023-04-15T14:50:25.752Z,3.03
2023-04-15T14:53:27.874Z,4.72
2023-04-15T14:56:29.866Z,3.40
2023-04-15T14:59:31.837Z,4.32
2023-04-15T15:02:39.698Z,2.00
2023-04-15T15:05:44.186Z,2.58
2023-04-15T15:08:46.447Z,2.83
2023-04-15T15:11:48.423Z,2.47
2023-04-15T15:14:50.417Z,1.25
2023-04-15T15:17:52.451Z,2.67
2023-04-15T15:20:54.650Z,2.65
2023-04-15T15:23:56.725Z,3.65
2023-04-15T15:26:58.877Z,1.55
2023-04-15T15:30:00.972Z,2.67
2023-04-15T15:33:03.271Z,2.33
2023-04-15T15:36:10.789Z,2.72
2023-04-15T15:39:12.708Z,2.17
2023-04-15T15:42:14.632Z,3.35
2023-04-15T15:45:17.044Z,1.73
2023-04-15T15:48:19.077Z,3.23
2023-04-15T15:51:21.104Z,2.13
2023-04-15T15:54:23.196Z,2.90
2023-04-15T15:57:25.236Z,3.75
2023-04-15T16:00:27.426Z,2.85
2023-04-15T16:03:29.536Z,3.87
2023-04-15T16:06:34.398Z,4.80
2023-04-15T16:09:37.621Z,2.42
2023-04-15T16:12:41.348Z,2.80
2023-04-15T16:15:43.347Z,3.70
2023-04-15T16:18:45.606Z,2.43
2023-04-15T16:21:48.337Z,3.45
2023-04-15T16:24:50.469Z,6.53
2023-04-15T16:28:03.121Z,3.95
2023-04-15T16:31:07.947Z,3.08
2023-04-15T16:34:12.059Z,3.30
2023-04-15T16:37:14.080Z,3.85
2023-04-15T16:40:16.116Z,4.25
2023-04-15T16:43:18.097Z,3.95
2023-04-15T16:46:20.330Z,3.57
2023-04-15T16:49:22.564Z,6.18
2023-04-15T16:52:24.560Z,5.40
2023-04-15T16:55:27.029Z,4.00
2023-04-15T16:58:29.443Z,3.38
2023-04-15T17:01:31.644Z,2.17
2023-04-15T17:04:34.929Z,2.72
2023-04-15T17:07:37.087Z,3.63
2023-04-15T17:10:39.186Z,2.47
2023-04-15T17:13:41.432Z,2.15
2023-04-15T17:16:43.472Z,2.73
2023-04-15T17:19:45.557Z,2.90
2023-04-15T17:22:48.743Z,2.83
2023-04-15T17:25:51.612Z,3.15
2023-04-15T17:28:53.638Z,6.38
2023-04-15T17:31:55.927Z,4.37
2023-04-15T17:34:58.502Z,6.10
2023-04-15T17:38:00.581Z,7.70
2023-04-15T17:41:02.652Z,4.28
2023-04-15T17:44:04.892Z,7.13
2023-04-15T17:47:07.301Z,15.20
2023-04-15T17:50:09.616Z,15.25
2023-04-15T17:53:11.857Z,10.75
2023-04-15T17:56:13.860Z,9.07
2023-04-15T17:59:16.723Z,7.78
2023-04-15T18:02:19.099Z,6.83
2023-04-15T18:05:21.581Z,5.70
2023-04-15T18:08:23.819Z,8.75
2023-04-15T18:11:26.132Z,17.35
2023-04-15T18:14:34.605Z,13.35
2023-04-15T18:17:37.156Z,13.00
2023-04-15T18:20:39.190Z,12.63
2023-04-15T18:23:41.227Z,8.95
2023-04-15T18:26:43.221Z,10.98
2023-04-15T18:29:45.205Z,17.52
2023-04-15T18:32:47.589Z,20.33
2023-04-15T18:35:50.185Z,14.27
2023-04-15T18:38:52.243Z,16.73
2023-04-15T18:41:56.522Z,15.73
2023-04-15T18:44:58.693Z,16.02
2023-04-15T18:48:00.717Z,18.67
2023-04-15T18:51:02.871Z,17.73
2023-04-15T18:54:04.868Z,20.40
2023-04-15T18:57:07.013Z,15.40
2023-04-15T19:00:10.876Z,14.48
2023-04-15T19:03:13.084Z,13.57
2023-04-15T19:06:15.159Z,12.15
2023-04-15T19:09:17.522Z,13.50
2023-04-15T19:12:19.684Z,11.80
2023-04-15T19:15:21.831Z,10.00
2023-04-15T19:18:23.972Z,10.20
2023-04-15T19:21:26.590Z,11.10
2023-04-15T19:24:32.852Z,8.93
2023-04-15T19:27:35.153Z,9.57
2023-04-15T19:30:37.219Z,7.90
2023-04-15T19:33:39.255Z,7.45
2023-04-15T19:36:41.231Z,12.23
2023-04-15T19:39:43.806Z,9.93
2023-04-15T19:42:46.691Z,7.77
2023-04-15T19:45:52.140Z,7.78
2023-04-15T19:48:55.327Z,8.93
2023-04-15T19:51:57.767Z,11.18
2023-04-15T19:54:59.761Z,16.97
2023-04-15T19:58:01.750Z,15.55
2023-04-15T20:01:03.773Z,12.55
2023-04-15T20:04:06.986Z,14.07
2023-04-15T20:07:10.116Z,16.70
2023-04-15T20:10:13.200Z,14.02
2023-04-15T20:13:15.364Z,13.07
2023-04-15T20:16:17.356Z,11.70
2023-04-15T20:19:19.549Z,15.07
2023-04-15T20:22:22.067Z,13.13
2023-04-15T20:25:24.046Z,12.57
2023-04-15T20:28:27.509Z,12.27
2023-04-15T20:31:29.669Z,18.13
2023-04-15T20:34:31.716Z,13.13
2023-04-15T20:37:34.323Z,17.55
2023-04-15T20:40:36.434Z,20.13
2023-04-15T20:43:38.374Z,20.23
2023-04-15T20:46:40.540Z,18.48
2023-04-15T20:49:42.829Z,23.33
2023-04-15T20:52:44.903Z,35.97
2023-04-15T20:55:46.924Z,24.10
2023-04-15T20:58:48.867Z,23.20
2023-04-15T21:01:51.325Z,24.67
2023-04-15T21:04:53.285Z,20.15
2023-04-15T21:07:55.437Z,20.73
2023-04-15T21:10:57.586Z,24.83
2023-04-15T21:13:59.594Z,25.98
2023-04-15T21:17:09.250Z,18.40
2023-04-15T21:20:13.072Z,15.90
2023-04-15T21:23:15.048Z,11.73
2023-04-15T21:26:17.079Z,17.25
2023-04-15T21:29:19.334Z,16.38
2023-04-15T21:32:21.426Z,15.90
2023-04-15T21:35:23.321Z,11.52
2023-04-15T21:38:25.562Z,16.10
2023-04-15T21:41:27.607Z,22.00
2023-04-15T21:44:29.591Z,11.93
2023-04-15T21:47:31.721Z,24.27
2023-04-15T21:51:00.867Z,18.40
2023-04-15T21:54:03.163Z,12.70
2023-04-15T21:57:05.199Z,10.37
2023-04-15T22:00:08.526Z,11.95
2023-04-15T22:03:11.053Z,8.57
2023-04-15T22:06:13.844Z,9.98
2023-04-15T22:09:16.662Z,8.77
2023-04-15T22:12:19.457Z,12.65
2023-04-15T22:15:21.409Z,9.65
2023-04-15T22:18:23.375Z,13.55
2023-04-15T22:21:25.513Z,14.90
2023-04-15T22:24:33.252Z,10.52
2023-04-15T22:27:41.930Z,9.90
2023-04-15T22:30:43.900Z,11.88
2023-04-15T22:33:46.205Z,7.88
2023-04-15T22:36:49.053Z,5.60
2023-04-15T22:39:51.878Z,7.97
2023-04-15T22:42:53.857Z,4.47
2023-04-15T22:45:56.674Z,6.18
2023-04-15T22:48:58.814Z,6.03
2023-04-15T22:52:01.014Z,7.68
2023-04-15T22:55:03.923Z,4.47
2023-04-15T22:58:06.002Z,5.70
2023-04-15T23:01:08.396Z,5.07
2023-04-15T23:04:25.176Z,8.75
2023-04-15T23:07:27.841Z,6.97
2023-04-15T23:10:29.940Z,5.53
2023-04-15T23:13:32.517Z,5.90
2023-04-15T23:16:34.650Z,5.28
2023-04-15T23:19:36.778Z,4.83
2023-04-15T23:22:39.069Z,5.55
2023-04-15T23:25:42.115Z,4.72
2023-04-15T23:28:44.204Z,8.57
2023-04-15T23:31:46.258Z,5.07
2023-04-15T23:34:48.428Z,5.43
2023-04-15T23:37:50.441Z,6.28
2023-04-15T23:40:52.526Z,5.17
2023-04-15T23:43:54.437Z,6.07
2023-04-15T23:46:56.362Z,6.20
2023-04-15T23:49:58.445Z,8.65
2023-04-15T23:53:00.476Z,6.03
2023-04-15T23:56:02.482Z,8.48
2023-04-15T23:59:04.413Z,6.15
